Time;durP1;ratioP1;P1;durP2;ratioP2;P2;SDS_P1;SDS_P2;PMS_P1;PMS_P2;Temp;Humidity;BMP_temperature;BMP_pressure;BME280_temperature;BME280_humidity;BME280_pressure;Samples;Min_cycle;Max_cycle;Signal;HPM_P1;HPM_P2
2021/05/30 00:00:24;;;;;;;28.58;26.88;;;10.90;77.00;;;;;;5022883;28;20460;-82
2021/05/30 00:02:51;;;;;;;27.30;25.90;;;10.90;77.30;;;;;;5025347;28;20231;-81
2021/05/30 00:05:17;;;;;;;28.05;26.50;;;10.90;77.30;;;;;;5026478;28;20752;-82
2021/05/30 00:07:44;;;;;;;27.13;25.58;;;10.90;77.20;;;;;;5023866;28;20207;-82
2021/05/30 00:10:11;;;;;;;27.58;26.17;;;10.90;76.50;;;;;;5018375;28;20293;-82
2021/05/30 00:12:38;;;;;;;27.25;25.80;;;10.90;76.70;;;;;;5019362;28;20228;-81
2021/05/30 00:15:09;;;;;;;28.08;26.45;;;10.80;77.10;;;;;;5027075;28;20778;-81
2021/05/30 00:17:36;;;;;;;27.20;25.60;;;10.80;77.50;;;;;;5028940;28;20718;-81
2021/05/30 00:20:04;;;;;;;28.20;26.50;;;10.80;77.60;;;;;;5027979;28;20205;-80
2021/05/30 00:22:30;;;;;;;27.42;25.95;;;10.90;77.30;;;;;;5028787;28;20226;-80
2021/05/30 00:24:57;;;;;;;29.33;27.08;;;10.90;77.10;;;;;;5024250;28;20217;-81
2021/05/30 00:27:23;;;;;;;26.77;25.30;;;10.80;77.40;;;;;;5026002;28;20741;-80
2021/05/30 00:29:50;;;;;;;28.27;26.67;;;10.80;77.40;;;;;;5019042;28;20201;-80
2021/05/30 00:32:17;;;;;;;28.35;26.65;;;10.70;77.60;;;;;;5031410;28;20288;-81
2021/05/30 00:34:43;;;;;;;28.45;26.95;;;10.60;78.10;;;;;;5024335;28;20296;-81
2021/05/30 00:37:10;;;;;;;27.60;25.95;;;10.50;78.30;;;;;;5025581;28;20193;-80
2021/05/30 00:39:36;;;;;;;27.92;26.33;;;10.50;78.60;;;;;;5025955;28;20264;-80
2021/05/30 00:42:03;;;;;;;27.92;26.42;;;10.50;78.60;;;;;;5037404;28;20239;-81
2021/05/30 00:44:30;;;;;;;28.00;26.48;;;10.50;78.70;;;;;;5026646;28;20215;-80
2021/05/30 00:46:59;;;;;;;27.42;25.95;;;10.50;78.30;;;;;;5026871;28;20307;-81
2021/05/30 00:49:27;;;;;;;26.40;24.90;;;10.50;78.50;;;;;;5027088;28;20695;-80
2021/05/30 00:51:54;;;;;;;27.13;25.13;;;10.50;78.60;;;;;;5014702;28;20291;-80
2021/05/30 00:54:21;;;;;;;26.52;25.13;;;10.40;78.70;;;;;;5025363;28;20686;-80
2021/05/30 00:56:48;;;;;;;27.15;25.65;;;10.40;78.90;;;;;;5021963;28;20572;-81
2021/05/30 00:59:15;;;;;;;25.83;24.52;;;10.40;78.90;;;;;;5018912;28;20227;-80
2021/05/30 01:01:42;;;;;;;26.05;24.65;;;10.50;78.40;;;;;;5027099;28;20585;-80
2021/05/30 01:04:10;;;;;;;26.05;24.63;;;10.50;78.10;;;;;;5027114;28;20197;-80
2021/05/30 01:06:38;;;;;;;26.38;24.98;;;10.30;78.60;;;;;;5019690;28;20256;-80
2021/05/30 01:09:05;;;;;;;26.88;25.38;;;10.30;78.80;;;;;;5026115;28;20204;-80
2021/05/30 01:11:33;;;;;;;26.27;24.88;;;10.30;78.80;;;;;;5025596;28;20201;-80
2021/05/30 01:14:00;;;;;;;26.98;25.45;;;10.20;79.20;;;;;;5025204;28;20224;-80
2021/05/30 01:16:28;;;;;;;27.33;25.75;;;10.20;79.40;;;;;;5022594;28;20203;-80
2021/05/30 01:18:57;;;;;;;25.38;24.08;;;10.10;79.40;;;;;;5025551;28;20207;-80
2021/05/30 01:21:27;;;;;;;25.55;24.05;;;10.10;79.40;;;;;;5025445;28;20575;-80
2021/05/30 01:23:55;;;;;;;26.15;24.80;;;10.10;79.60;;;;;;5023858;28;20274;-80
2021/05/30 01:26:23;;;;;;;26.77;25.27;;;10.00;80.60;;;;;;5019620;28;20308;-80
2021/05/30 01:28:49;;;;;;;26.67;25.23;;;9.90;80.70;;;;;;5022396;28;20697;-80
2021/05/30 01:31:17;;;;;;;27.25;25.80;;;9.90;81.00;;;;;;5019762;28;20216;-80
2021/05/30 01:33:44;;;;;;;26.30;24.90;;;9.80;81.60;;;;;;5024592;28;20308;-80
2021/05/30 01:36:11;;;;;;;27.15;25.75;;;9.80;81.10;;;;;;5023526;28;20280;-80
2021/05/30 01:38:37;;;;;;;26.95;25.55;;;9.80;80.90;;;;;;5028607;28;20201;-80
2021/05/30 01:41:05;;;;;;;27.38;25.88;;;9.90;80.70;;;;;;5025135;28;20585;-81
2021/05/30 01:43:32;;;;;;;25.98;24.48;;;9.90;80.60;;;;;;5030369;28;20231;-80
2021/05/30 01:45:59;;;;;;;25.52;24.02;;;9.80;81.40;;;;;;5023108;28;20221;-80
2021/05/30 01:48:25;;;;;;;26.80;25.08;;;9.80;82.60;;;;;;5029295;28;20675;-80
2021/05/30 01:50:52;;;;;;;25.80;24.50;;;9.80;81.40;;;;;;5020130;28;20727;-81
2021/05/30 01:53:20;;;;;;;26.15;24.50;;;9.80;80.90;;;;;;5026626;28;20664;-81
2021/05/30 01:55:51;;;;;;;27.08;25.48;;;9.90;80.40;;;;;;5026162;28;20193;-81
2021/05/30 01:58:20;;;;;;;25.70;24.40;;;9.90;80.50;;;;;;5026566;28;20202;-80
2021/05/30 02:00:48;;;;;;;26.80;25.40;;;9.80;81.10;;;;;;5022105;28;20343;-80
2021/05/30 02:03:16;;;;;;;26.17;24.55;;;9.90;81.10;;;;;;5028658;28;20221;-80
2021/05/30 02:05:47;;;;;;;26.73;25.13;;;9.90;80.70;;;;;;5027123;28;20217;-80
2021/05/30 02:08:14;;;;;;;26.25;24.77;;;9.90;80.40;;;;;;5030820;28;20338;-80
2021/05/30 02:10:41;;;;;;;26.85;25.25;;;9.80;80.40;;;;;;5031331;28;20770;-80
2021/05/30 02:13:08;;;;;;;26.13;24.70;;;9.70;80.80;;;;;;5032626;28;20315;-81
2021/05/30 02:15:35;;;;;;;25.95;24.55;;;9.70;80.70;;;;;;5031406;28;20235;-81
2021/05/30 02:18:04;;;;;;;25.05;23.70;;;9.70;80.90;;;;;;5030141;28;20204;-81
2021/05/30 02:20:33;;;;;;;26.60;25.10;;;9.60;81.50;;;;;;5030694;28;20266;-81
2021/05/30 02:23:01;;;;;;;27.88;26.38;;;9.50;81.90;;;;;;5027636;28;20651;-81
2021/05/30 02:25:27;;;;;;;25.73;24.23;;;9.50;81.80;;;;;;5026343;28;20262;-81
2021/05/30 02:27:54;;;;;;;26.60;25.15;;;9.60;81.30;;;;;;5028505;28;20292;-80
2021/05/30 02:30:22;;;;;;;26.92;25.48;;;9.50;81.40;;;;;;5021146;28;20202;-81
2021/05/30 02:32:50;;;;;;;26.80;25.30;;;9.60;81.20;;;;;;5027540;28;20253;-81
2021/05/30 02:35:17;;;;;;;27.30;25.80;;;9.40;81.90;;;;;;5029011;28;20243;-81
2021/05/30 02:37:44;;;;;;;25.88;24.48;;;9.40;82.10;;;;;;5030909;28;20201;-81
2021/05/30 02:40:12;;;;;;;25.58;24.27;;;9.40;82.00;;;;;;5033041;28;20228;-81
2021/05/30 02:42:39;;;;;;;25.90;24.55;;;9.40;82.50;;;;;;5039342;28;20305;-80
2021/05/30 02:45:06;;;;;;;25.55;24.25;;;9.40;82.40;;;;;;5028744;28;20241;-81
2021/05/30 02:47:33;;;;;;;25.80;24.25;;;9.50;82.10;;;;;;5032042;28;20703;-81
2021/05/30 02:50:00;;;;;;;26.13;24.63;;;9.50;81.60;;;;;;5030162;28;20244;-81
2021/05/30 02:52:27;;;;;;;27.20;25.35;;;9.50;81.60;;;;;;5029365;28;20722;-80
2021/05/30 02:54:56;;;;;;;420.05;134.80;;;9.50;81.70;;;;;;5026553;28;20193;-80
2021/05/30 02:57:23;;;;;;;27.33;25.55;;;9.40;82.30;;;;;;5029393;28;20205;-81
2021/05/30 02:59:49;;;;;;;25.80;24.33;;;9.30;82.50;;;;;;5025456;28;20204;-80
2021/05/30 03:02:16;;;;;;;25.55;24.02;;;9.30;82.60;;;;;;5027487;28;20225;-80
2021/05/30 03:04:42;;;;;;;25.75;24.25;;;9.30;82.50;;;;;;5024902;28;20204;-79
2021/05/30 03:07:10;;;;;;;28.45;26.67;;;9.20;82.70;;;;;;5024124;28;20270;-79
2021/05/30 03:09:37;;;;;;;28.60;24.83;;;9.20;83.00;;;;;;5022744;28;20194;-79
2021/05/30 03:12:05;;;;;;;29.35;27.15;;;9.10;83.40;;;;;;5022418;28;20727;-80
2021/05/30 03:14:32;;;;;;;26.48;24.70;;;9.10;83.70;;;;;;5024819;28;20695;-80
2021/05/30 03:16:58;;;;;;;27.42;25.33;;;9.10;83.80;;;;;;5025042;28;20285;-80
2021/05/30 03:19:25;;;;;;;39.60;28.45;;;9.10;83.50;;;;;;5023390;28;20288;-80
2021/05/30 03:21:51;;;;;;;26.17;24.58;;;9.20;83.50;;;;;;5026729;28;20225;-80
2021/05/30 03:24:18;;;;;;;27.25;25.30;;;9.20;83.10;;;;;;5028655;28;20272;-79
2021/05/30 03:26:45;;;;;;;24.33;22.90;;;9.20;83.40;;;;;;5024091;28;20220;-80
2021/05/30 03:29:11;;;;;;;25.55;24.15;;;9.20;83.40;;;;;;5024301;28;20643;-80
2021/05/30 03:31:38;;;;;;;24.70;23.40;;;9.30;83.20;;;;;;5025084;28;20608;-80
2021/05/30 03:34:04;;;;;;;24.70;23.00;;;9.30;82.80;;;;;;5027442;28;20288;-80
2021/05/30 03:36:32;;;;;;;24.60;23.30;;;9.30;83.00;;;;;;5022084;28;20387;-79
2021/05/30 03:39:03;;;;;;;25.08;23.48;;;9.20;82.80;;;;;;5025026;28;20233;-79
2021/05/30 03:41:35;;;;;;;24.90;23.55;;;9.20;82.90;;;;;;5020173;28;20713;-80
2021/05/30 03:44:02;;;;;;;24.83;23.23;;;9.20;82.90;;;;;;5018639;28;20572;-80
2021/05/30 03:46:28;;;;;;;24.85;23.45;;;9.20;83.10;;;;;;5024088;28;20217;-80
2021/05/30 03:48:55;;;;;;;24.35;23.00;;;9.20;83.10;;;;;;5022311;28;20194;-80
2021/05/30 03:51:21;;;;;;;24.48;23.17;;;9.30;84.70;;;;;;5022972;28;20207;-80
2021/05/30 03:53:48;;;;;;;25.23;23.80;;;9.40;83.30;;;;;;5023059;28;20221;-80
2021/05/30 03:56:14;;;;;;;24.75;23.45;;;9.60;82.50;;;;;;5019238;28;20229;-79
2021/05/30 03:58:42;;;;;;;24.85;23.55;;;9.70;81.40;;;;;;5024242;28;20262;-80
2021/05/30 04:01:08;;;;;;;24.88;23.48;;;10.00;80.50;;;;;;5016937;28;20201;-81
2021/05/30 04:03:35;;;;;;;24.77;23.48;;;10.20;79.70;;;;;;5023931;28;20327;-80
2021/05/30 04:06:01;;;;;;;26.20;24.70;;;10.20;79.20;;;;;;5023974;28;20679;-80
2021/05/30 04:08:27;;;;;;;24.95;23.65;;;10.30;78.90;;;;;;5022242;28;20207;-80
2021/05/30 04:10:54;;;;;;;25.38;24.08;;;10.30;78.70;;;;;;5022568;28;20259;-80
2021/05/30 04:13:20;;;;;;;25.60;24.20;;;10.30;78.70;;;;;;5023854;28;20232;-80
2021/05/30 04:15:47;;;;;;;25.35;23.95;;;10.30;78.70;;;;;;5023137;28;20201;-80
2021/05/30 04:18:14;;;;;;;25.45;23.95;;;10.30;78.70;;;;;;5025408;28;20197;-79
2021/05/30 04:20:40;;;;;;;25.08;23.67;;;10.30;78.70;;;;;;5018276;28;20303;-80
2021/05/30 04:23:07;;;;;;;24.88;23.58;;;10.30;79.10;;;;;;5024772;28;20302;-80
2021/05/30 04:25:33;;;;;;;24.73;23.45;;;10.30;78.90;;;;;;5016814;28;20221;-80
2021/05/30 04:28:00;;;;;;;25.63;24.15;;;10.30;78.90;;;;;;5024127;28;20202;-80
2021/05/30 04:30:26;;;;;;;24.45;23.15;;;10.30;78.70;;;;;;5023493;28;20584;-80
2021/05/30 04:32:54;;;;;;;24.85;23.55;;;10.30;79.10;;;;;;5025982;28;20217;-80
2021/05/30 04:35:20;;;;;;;27.02;25.63;;;10.30;79.30;;;;;;5028298;28;20266;-80
2021/05/30 04:37:47;;;;;;;26.00;24.60;;;10.40;79.10;;;;;;5026464;28;20208;-80
2021/05/30 04:40:13;;;;;;;25.90;24.52;;;10.50;78.80;;;;;;5024661;28;20197;-80
2021/05/30 04:42:40;;;;;;;27.63;25.95;;;10.50;78.80;;;;;;5023901;28;20217;-80
2021/05/30 04:45:08;;;;;;;25.48;24.17;;;10.60;78.40;;;;;;5022918;28;20259;-80
2021/05/30 04:47:34;;;;;;;25.90;24.10;;;10.60;78.00;;;;;;5022709;28;20212;-79
2021/05/30 04:50:01;;;;;;;25.33;24.00;;;10.60;78.00;;;;;;5020381;28;20202;-80
2021/05/30 04:52:28;;;;;;;24.42;23.02;;;10.60;78.40;;;;;;5020565;28;20303;-80
2021/05/30 04:54:54;;;;;;;25.42;23.80;;;10.70;78.30;;;;;;5022506;28;20265;-80
2021/05/30 04:57:21;;;;;;;26.00;24.70;;;10.70;78.30;;;;;;5033883;28;20193;-80
2021/05/30 04:59:47;;;;;;;27.38;25.67;;;10.80;78.20;;;;;;5021034;28;20194;-79
2021/05/30 05:02:14;;;;;;;29.08;27.48;;;10.90;78.30;;;;;;5025331;28;20274;-80
2021/05/30 05:04:40;;;;;;;26.60;25.20;;;11.00;77.80;;;;;;5024165;28;20202;-80
2021/05/30 05:07:08;;;;;;;26.00;24.52;;;11.00;77.90;;;;;;5024517;28;20574;-80
2021/05/30 05:09:34;;;;;;;26.77;25.38;;;11.20;77.50;;;;;;5023279;28;20200;-80
2021/05/30 05:12:01;;;;;;;25.83;24.52;;;11.30;77.00;;;;;;5024278;28;20245;-79
2021/05/30 05:14:27;;;;;;;26.43;25.03;;;11.40;76.80;;;;;;5023161;28;20380;-80
2021/05/30 05:16:53;;;;;;;26.55;25.15;;;11.60;76.40;;;;;;5024351;28;20452;-80
2021/05/30 05:19:20;;;;;;;25.77;24.37;;;11.70;76.10;;;;;;5022421;28;20237;-80
2021/05/30 05:21:46;;;;;;;26.20;24.43;;;11.70;75.80;;;;;;5024575;28;20502;-80
2021/05/30 05:24:14;;;;;;;29.80;28.10;;;11.80;75.50;;;;;;5017698;28;20453;-80
2021/05/30 05:26:40;;;;;;;28.23;26.67;;;11.90;75.40;;;;;;5024948;28;20962;-80
2021/05/30 05:29:07;;;;;;;28.20;26.30;;;11.90;74.70;;;;;;5023569;28;20463;-80
2021/05/30 05:31:33;;;;;;;28.40;26.67;;;12.00;74.10;;;;;;5024195;28;20464;-80
2021/05/30 05:33:59;;;;;;;27.10;25.60;;;12.20;73.60;;;;;;5024735;28;20494;-80
2021/05/30 05:36:26;;;;;;;28.07;26.50;;;12.30;73.40;;;;;;5023248;28;20459;-80
2021/05/30 05:38:52;;;;;;;29.73;28.03;;;12.40;73.10;;;;;;5028971;28;20520;-80
2021/05/30 05:41:20;;;;;;;28.37;26.67;;;12.50;72.50;;;;;;5028967;28;20780;-80
2021/05/30 05:43:49;;;;;;;28.07;26.30;;;12.60;72.10;;;;;;5033836;28;20633;-80
2021/05/30 05:46:16;;;;;;;27.30;25.90;;;12.70;72.00;;;;;;5030954;28;21370;-80
2021/05/30 05:48:42;;;;;;;28.80;27.10;;;12.70;72.00;;;;;;5033643;28;20543;-81
2021/05/30 05:51:09;;;;;;;29.40;27.73;;;12.90;71.60;;;;;;5031587;28;20460;-80
2021/05/30 05:53:35;;;;;;;36.80;31.10;;;13.00;71.20;;;;;;5027896;28;21321;-80
2021/05/30 05:56:02;;;;;;;33.00;30.40;;;13.00;70.50;;;;;;5029890;28;20538;-80
2021/05/30 05:58:29;;;;;;;29.37;27.47;;;13.10;70.10;;;;;;5032507;28;20467;-80
2021/05/30 06:00:55;;;;;;;30.00;27.20;;;13.30;69.50;;;;;;5029353;28;20459;-78
2021/05/30 06:03:22;;;;;;;28.03;26.33;;;13.30;69.10;;;;;;5026575;28;20570;-80
2021/05/30 06:05:48;;;;;;;29.17;27.23;;;13.40;68.80;;;;;;5025994;28;20598;-80
2021/05/30 06:08:15;;;;;;;28.30;26.53;;;13.40;68.80;;;;;;5026765;28;21031;-80
2021/05/30 06:10:41;;;;;;;28.40;26.83;;;13.40;69.10;;;;;;5025206;28;20514;-80
2021/05/30 06:13:10;;;;;;;28.27;26.67;;;13.40;69.00;;;;;;5028775;28;20471;-80
2021/05/30 06:15:38;;;;;;;29.30;27.60;;;13.40;69.40;;;;;;5022565;28;20460;-80
2021/05/30 06:18:09;;;;;;;28.47;26.97;;;13.60;68.70;;;;;;5028720;28;20827;-80
2021/05/30 06:20:35;;;;;;;28.30;26.50;;;13.60;69.80;;;;;;5025957;28;20459;-80
2021/05/30 06:23:03;;;;;;;27.80;26.30;;;13.70;68.70;;;;;;5026738;28;20487;-80
2021/05/30 06:25:30;;;;;;;27.73;26.07;;;13.80;68.50;;;;;;5022305;28;20483;-80
2021/05/30 06:27:58;;;;;;;27.10;25.50;;;14.00;67.80;;;;;;5025278;28;20547;-80
2021/05/30 06:30:25;;;;;;;29.90;28.03;;;14.20;66.60;;;;;;5022549;28;20467;-80
2021/05/30 06:32:52;;;;;;;27.90;26.30;;;14.20;66.20;;;;;;5033019;28;20530;-80
2021/05/30 06:35:18;;;;;;;27.53;25.87;;;14.10;66.50;;;;;;5028366;28;20459;-80
2021/05/30 06:37:45;;;;;;;28.07;26.47;;;14.20;65.80;;;;;;5022352;28;20543;-80
2021/05/30 06:40:12;;;;;;;28.50;26.90;;;14.20;65.90;;;;;;5025617;28;20455;-79
2021/05/30 06:42:39;;;;;;;28.00;26.33;;;14.20;66.20;;;;;;5023810;28;21064;-79
2021/05/30 06:45:07;;;;;;;27.50;26.00;;;14.10;66.30;;;;;;5025415;28;20982;-77
2021/05/30 06:47:34;;;;;;;28.70;26.93;;;14.20;66.10;;;;;;5024352;28;20489;-78
2021/05/30 06:50:01;;;;;;;28.37;26.70;;;14.30;64.90;;;;;;5023947;28;20466;-77
2021/05/30 06:52:28;;;;;;;26.57;25.07;;;14.40;64.70;;;;;;5025311;28;20504;-82
2021/05/30 06:54:54;;;;;;;27.13;25.43;;;14.50;64.40;;;;;;5019661;28;20504;-82
2021/05/30 06:57:21;;;;;;;27.87;26.27;;;14.40;65.00;;;;;;5027850;28;20524;-82
2021/05/30 06:59:48;;;;;;;27.13;25.63;;;14.50;64.50;;;;;;5029314;28;20460;-82
2021/05/30 07:02:16;;;;;;;30.60;28.80;;;14.50;64.50;;;;;;5014935;28;21025;-82
2021/05/30 07:04:43;;;;;;;28.00;26.33;;;14.70;63.60;;;;;;5027036;28;20790;-82
2021/05/30 07:07:10;;;;;;;26.73;24.93;;;14.70;63.90;;;;;;5025327;28;20475;-81
2021/05/30 07:09:37;;;;;;;25.73;24.43;;;14.80;63.70;;;;;;5032100;28;20863;-83
2021/05/30 07:12:05;;;;;;;26.63;25.13;;;14.90;63.20;;;;;;5039376;28;20539;-82
2021/05/30 07:14:31;;;;;;;27.40;25.73;;;15.00;62.90;;;;;;5020446;28;20877;-82
2021/05/30 07:16:58;;;;;;;26.67;25.17;;;15.10;62.50;;;;;;5032310;28;20444;-82
2021/05/30 07:19:24;;;;;;;25.90;24.40;;;15.20;62.50;;;;;;5016791;28;20466;-80
2021/05/30 07:21:51;;;;;;;26.80;25.40;;;15.00;62.80;;;;;;5025236;28;20543;-78
2021/05/30 07:24:19;;;;;;;27.30;25.60;;;15.10;62.80;;;;;;5022565;28;20580;-76
2021/05/30 07:26:45;;;;;;;26.90;25.17;;;15.30;62.70;;;;;;5024217;28;20483;-76
2021/05/30 07:29:14;;;;;;;28.20;26.60;;;15.30;62.60;;;;;;5021217;28;20980;-73
2021/05/30 07:31:41;;;;;;;27.63;26.10;;;15.50;62.20;;;;;;5023843;28;20471;-75
2021/05/30 07:34:08;;;;;;;28.13;26.50;;;15.50;62.00;;;;;;5021754;28;21079;-77
2021/05/30 07:36:34;;;;;;;27.30;25.80;;;15.50;61.90;;;;;;5024477;28;20515;-77
2021/05/30 07:39:01;;;;;;;27.30;25.80;;;15.60;61.20;;;;;;5022658;28;20521;-78
2021/05/30 07:41:28;;;;;;;28.87;27.17;;;15.70;61.50;;;;;;5023645;28;20464;-74
2021/05/30 07:43:54;;;;;;;26.97;25.20;;;15.90;60.10;;;;;;5022767;28;20464;-75
2021/05/30 07:46:21;;;;;;;27.57;25.97;;;16.00;59.50;;;;;;5022710;28;20495;-74
2021/05/30 07:48:48;;;;;;;28.87;27.37;;;16.00;58.80;;;;;;5023164;28;20462;-76
2021/05/30 07:51:14;;;;;;;25.70;24.30;;;15.90;58.70;;;;;;5022484;28;20902;-75
2021/05/30 07:53:41;;;;;;;26.00;24.50;;;16.10;58.60;;;;;;5022525;28;20479;-75
2021/05/30 07:56:07;;;;;;;26.30;24.90;;;16.20;57.60;;;;;;5020487;28;20460;-79
2021/05/30 07:58:35;;;;;;;26.47;24.97;;;16.20;57.50;;;;;;5024823;28;20460;-79
2021/05/30 08:01:02;;;;;;;25.70;24.30;;;16.30;57.10;;;;;;5024938;28;20460;-79
2021/05/30 08:03:28;;;;;;;27.50;26.00;;;16.30;56.70;;;;;;5030733;28;21011;-77
2021/05/30 08:05:55;;;;;;;27.07;25.60;;;16.30;56.80;;;;;;5026065;28;20475;-76
2021/05/30 08:08:22;;;;;;;26.20;24.60;;;16.30;56.70;;;;;;5020294;28;20464;-76
2021/05/30 08:10:49;;;;;;;26.50;25.10;;;16.50;55.40;;;;;;5034802;28;20604;-77
2021/05/30 08:13:15;;;;;;;26.87;25.30;;;16.60;55.30;;;;;;5021071;28;20510;-79
2021/05/30 08:15:43;;;;;;;25.97;24.50;;;16.70;55.10;;;;;;5017759;28;20983;-73
2021/05/30 08:18:09;;;;;;;25.57;24.17;;;16.90;53.00;;;;;;5020792;28;21075;-81
2021/05/30 08:20:36;;;;;;;25.93;24.53;;;16.90;51.80;;;;;;5023309;28;20468;-80
2021/05/30 08:23:03;;;;;;;25.23;23.93;;;16.90;50.90;;;;;;5024903;28;20546;-78
2021/05/30 08:25:30;;;;;;;25.10;23.73;;;16.90;51.00;;;;;;5018680;28;21336;-76
2021/05/30 08:27:56;;;;;;;24.23;22.83;;;16.90;51.10;;;;;;5022516;28;20467;-78
2021/05/30 08:30:24;;;;;;;25.67;24.37;;;16.90;51.70;;;;;;5027807;28;20460;-77
2021/05/30 08:32:52;;;;;;;25.20;23.90;;;17.00;51.70;;;;;;5023338;28;20504;-75
2021/05/30 08:35:19;;;;;;;25.10;23.80;;;17.30;50.30;;;;;;5028709;28;20604;-76
2021/05/30 08:37:46;;;;;;;26.50;25.10;;;17.60;49.30;;;;;;5022369;28;20922;-76
2021/05/30 08:40:15;;;;;;;27.87;26.27;;;17.70;47.60;;;;;;5019945;28;20461;-76
2021/05/30 08:42:42;;;;;;;27.47;26.00;;;17.70;48.10;;;;;;5016783;28;20479;-76
2021/05/30 08:45:09;;;;;;;25.87;24.17;;;17.60;47.40;;;;;;5011979;28;20460;-76
2021/05/30 08:47:36;;;;;;;25.47;24.07;;;17.60;47.80;;;;;;5021152;28;20476;-76
2021/05/30 08:50:05;;;;;;;24.77;23.47;;;17.70;48.20;;;;;;5016943;28;20459;-76
2021/05/30 08:52:33;;;;;;;27.20;25.70;;;17.80;48.60;;;;;;5025144;28;21568;-76
2021/05/30 08:55:00;;;;;;;26.50;24.70;;;18.00;47.90;;;;;;5020236;28;20459;-76
2021/05/30 08:57:27;;;;;;;25.77;24.20;;;18.10;47.60;;;;;;5011894;28;20500;-76
2021/05/30 08:59:55;;;;;;;25.40;24.10;;;18.10;47.00;;;;;;5023640;28;20462;-77
2021/05/30 09:02:22;;;;;;;25.93;24.33;;;18.20;47.70;;;;;;5024656;28;20504;-77
2021/05/30 09:04:51;;;;;;;28.30;26.40;;;18.20;47.60;;;;;;5023909;28;21005;-76
2021/05/30 09:07:19;;;;;;;26.43;24.97;;;18.60;47.20;;;;;;5019977;28;20484;-76
2021/05/30 09:09:46;;;;;;;26.00;24.60;;;19.10;45.30;;;;;;5027347;28;20968;-76
2021/05/30 09:12:25;;;;;;;25.37;24.07;;;19.30;45.80;;;;;;5037626;28;20479;-76
2021/05/30 09:14:54;;;;;;;25.70;24.10;;;19.50;44.40;;;;;;5021105;28;20996;-76
2021/05/30 09:17:25;;;;;;;26.33;24.93;;;19.70;44.30;;;;;;5016607;28;20841;-77
2021/05/30 09:19:52;;;;;;;25.83;24.43;;;19.80;43.60;;;;;;5017597;28;20548;-77
2021/05/30 09:22:31;;;;;;;27.10;25.60;;;19.60;43.40;;;;;;5022288;28;20967;-76
2021/05/30 09:25:16;;;;;;;25.70;24.30;;;19.40;43.50;;;;;;5022847;28;20556;-76
2021/05/30 09:27:57;;;;;;;25.43;24.10;;;19.70;44.00;;;;;;5019726;28;20484;-76
2021/05/30 09:30:34;;;;;;;26.70;25.30;;;19.70;43.30;;;;;;5025734;28;20474;-76
2021/05/30 09:33:14;;;;;;;25.00;23.70;;;19.50;44.00;;;;;;5023500;28;20488;-76
2021/05/30 09:35:55;;;;;;;26.07;24.67;;;19.30;44.10;;;;;;5023327;28;20557;-76
2021/05/30 09:38:29;;;;;;;25.33;24.03;;;19.60;43.60;;;;;;5021061;28;20823;-76
2021/05/30 09:40:57;;;;;;;26.60;25.03;;;20.00;44.20;;;;;;5022918;28;20466;-77
2021/05/30 09:43:26;;;;;;;26.60;25.00;;;20.00;43.90;;;;;;5014774;28;20480;-76
2021/05/30 09:46:07;;;;;;;27.37;25.77;;;19.60;44.20;;;;;;5022453;28;20490;-76
2021/05/30 09:48:37;;;;;;;26.30;24.80;;;19.60;44.40;;;;;;5022191;28;20461;-77
2021/05/30 09:51:25;;;;;;;28.40;26.77;;;19.70;44.70;;;;;;5018905;28;20487;-76
2021/05/30 09:53:55;;;;;;;28.70;26.30;;;19.50;45.40;;;;;;5020273;28;20463;-77
2021/05/30 09:56:36;;;;;;;26.87;25.37;;;19.40;45.80;;;;;;5022982;28;21002;-77
2021/05/30 09:59:05;;;;;;;27.10;25.60;;;19.10;46.20;;;;;;5021879;28;20595;-76
2021/05/30 10:01:51;;;;;;;25.67;24.27;;;19.20;45.80;;;;;;5027840;28;20543;-76
2021/05/30 10:04:19;;;;;;;27.37;25.63;;;19.30;45.60;;;;;;5029793;28;20460;-76
2021/05/30 10:06:46;;;;;;;26.87;25.37;;;19.10;45.30;;;;;;5027426;28;20515;-75
2021/05/30 10:09:15;;;;;;;26.30;24.60;;;18.90;45.90;;;;;;5021464;28;20468;-76
2021/05/30 10:11:43;;;;;;;25.63;24.33;;;18.80;45.30;;;;;;5023766;28;20500;-77
2021/05/30 10:14:10;;;;;;;25.80;24.40;;;18.60;46.00;;;;;;5016998;28;20543;-77
2021/05/30 10:16:37;;;;;;;25.83;24.43;;;18.50;46.10;;;;;;5017748;28;20481;-77
2021/05/30 10:19:08;;;;;;;25.47;24.07;;;18.40;45.90;;;;;;5006893;28;20472;-77
2021/05/30 10:24:57;;;;;;;26.03;24.53;;;18.90;46.60;;;;;;5018446;28;20439;-77
2021/05/30 10:27:26;;;;;;;25.67;24.27;;;19.60;45.40;;;;;;5008947;28;21369;-77
2021/05/30 10:30:19;;;;;;;25.20;23.90;;;19.60;44.90;;;;;;5025277;28;20554;-77
2021/05/30 10:32:47;;;;;;;25.60;24.30;;;19.50;44.60;;;;;;4993584;28;20531;-77
2021/05/30 10:35:19;;;;;;;26.20;24.80;;;19.60;43.70;;;;;;5015874;28;21013;-77
2021/05/30 10:37:48;;;;;;;25.17;23.87;;;19.30;44.50;;;;;;5023016;28;20534;-77
2021/05/30 10:40:37;;;;;;;24.80;23.50;;;19.30;44.70;;;;;;5020737;28;20707;-77
2021/05/30 10:43:21;;;;;;;25.87;24.37;;;19.20;45.00;;;;;;5015887;28;20479;-77
2021/05/30 10:46:12;;;;;;;25.00;23.60;;;19.20;45.70;;;;;;5021052;28;20825;-77
2021/05/30 10:48:39;;;;;;;26.03;24.63;;;19.50;44.50;;;;;;4991355;28;20452;-76
2021/05/30 10:53:53;;;;;;;25.03;23.73;;;19.20;44.40;;;;;;5020279;28;20452;-77
2021/05/30 10:56:28;;;;;;;27.10;25.50;;;19.40;44.60;;;;;;5012164;28;20467;-76
2021/05/30 10:59:28;;;;;;;25.50;24.20;;;19.80;44.40;;;;;;5021388;28;20483;-76
2021/05/30 11:01:56;;;;;;;25.97;24.57;;;19.70;42.90;;;;;;5019474;28;20468;-77
2021/05/30 11:04:36;;;;;;;24.73;23.43;;;19.60;43.00;;;;;;5024171;28;20751;-77
2021/05/30 11:07:38;;;;;;;25.07;23.70;;;19.90;43.00;;;;;;5022749;28;20487;-76
2021/05/30 11:10:13;;;;;;;26.63;25.17;;;20.20;41.00;;;;;;5022377;28;20946;-77
2021/05/30 11:12:55;;;;;;;26.23;24.83;;;20.10;41.00;;;;;;5018507;28;20768;-77
2021/05/30 11:15:30;;;;;;;26.13;24.70;;;20.00;40.30;;;;;;5012866;28;20495;-76
2021/05/30 11:17:58;;;;;;;26.50;25.10;;;19.60;41.40;;;;;;5018379;28;20884;-77
2021/05/30 11:20:28;;;;;;;25.53;24.13;;;19.60;42.40;;;;;;5019994;28;20503;-77
2021/05/30 11:22:56;;;;;;;26.00;24.57;;;19.80;42.80;;;;;;5007639;28;20519;-77
2021/05/30 11:25:25;;;;;;;26.23;24.80;;;19.90;41.10;;;;;;5019373;28;20471;-76
2021/05/30 11:27:57;;;;;;;26.67;25.10;;;19.90;41.50;;;;;;5020281;28;20483;-77
2021/05/30 11:30:48;;;;;;;25.50;24.10;;;19.90;41.50;;;;;;5020509;28;20472;-77
2021/05/30 11:33:26;;;;;;;28.10;26.40;;;20.10;40.60;;;;;;5010640;28;20954;-77
2021/05/30 11:35:54;;;;;;;25.60;24.27;;;20.00;40.40;;;;;;5022889;28;20554;-77
2021/05/30 11:38:32;;;;;;;26.33;24.73;;;19.70;41.00;;;;;;5009172;28;21049;-77
2021/05/30 11:41:11;;;;;;;27.17;25.63;;;19.80;40.30;;;;;;5006682;28;20464;-77
2021/05/30 11:43:38;;;;;;;28.43;26.97;;;20.00;40.40;;;;;;5016403;28;21074;-76
2021/05/30 11:46:13;;;;;;;26.33;24.60;;;19.90;40.20;;;;;;5014047;28;20483;-77
2021/05/30 11:48:41;;;;;;;25.40;24.10;;;19.90;40.60;;;;;;5012743;28;20871;-77
2021/05/30 11:51:08;;;;;;;25.60;24.10;;;20.10;40.40;;;;;;5011270;28;20814;-77
2021/05/30 11:53:35;;;;;;;24.93;23.63;;;20.00;40.90;;;;;;5004275;28;21012;-77
2021/05/30 11:56:04;;;;;;;25.73;24.33;;;20.10;40.30;;;;;;5015938;28;20468;-77
2021/05/30 11:58:31;;;;;;;26.43;24.97;;;20.30;39.60;;;;;;5018384;28;20490;-76
2021/05/30 12:01:00;;;;;;;25.87;24.47;;;20.50;38.90;;;;;;5014584;28;20471;-77
2021/05/30 12:03:27;;;;;;;26.83;25.43;;;20.60;40.00;;;;;;5007591;28;20491;-76
2021/05/30 12:05:58;;;;;;;25.87;24.47;;;20.50;40.50;;;;;;5013345;28;20472;-76
2021/05/30 12:08:27;;;;;;;26.00;24.60;;;20.50;40.70;;;;;;5003854;28;20461;-77
2021/05/30 12:10:56;;;;;;;26.70;25.30;;;20.50;40.90;;;;;;5010554;28;20469;-77
2021/05/30 12:13:32;;;;;;;25.97;24.43;;;20.70;41.10;;;;;;5015543;28;20526;-77
2021/05/30 12:16:13;;;;;;;25.30;23.90;;;20.80;38.10;;;;;;5019210;28;20988;-77
2021/05/30 12:18:51;;;;;;;25.20;23.80;;;21.00;37.90;;;;;;5022515;28;20463;-77
2021/05/30 12:21:17;;;;;;;25.77;24.40;;;20.90;37.80;;;;;;5009062;28;20469;-77
2021/05/30 12:23:44;;;;;;;26.73;24.90;;;20.70;37.10;;;;;;5014654;28;20472;-77
2021/05/30 12:26:12;;;;;;;24.97;23.67;;;20.80;37.70;;;;;;5016312;28;20479;-77
2021/05/30 12:28:40;;;;;;;25.60;24.20;;;21.00;38.10;;;;;;5021973;28;20464;-80
2021/05/30 12:31:09;;;;;;;25.73;24.43;;;21.20;38.30;;;;;;5018805;28;20478;-80
2021/05/30 12:33:53;;;;;;;26.03;24.63;;;21.60;38.30;;;;;;5024181;28;20472;-80
2021/05/30 12:36:34;;;;;;;25.00;23.47;;;21.80;37.80;;;;;;5022057;28;21037;-79
2021/05/30 12:39:04;;;;;;;25.70;24.00;;;21.70;38.00;;;;;;5020851;28;20567;-78
2021/05/30 12:41:32;;;;;;;26.10;24.40;;;21.50;38.10;;;;;;5026289;28;20463;-80